Kladno, Czech Republic

5:13 PM CEST on August 27, 2016 (GMT +0200)
Kladno | | Change Station

Elev 1296 ft 50.14 °N, 14.11 °E | Updated 2 minutes ago

Clear
Clear
83.7 °F
Feels Like 83 °F
N
1.0
Wind Variable Wind from NNW
Gusts 5.0 mph

Today
High -- | Low -- °F
--% Chance of Precip.
Yesterday
High -- | Low -- °F
Precip. -- in
Pressure 30.12 in
Visibility -9999.0 miles
Clouds
Heat Index 83 °F
Dew Point 55 °F
Humidity 38%
Rainfall 0.00 in
Snow Depth Not available.
6:11 AM 7:57 PM
Waning Crescent, 24% visible
METAR LKPR 271500Z 11005KT 040V170 CAVOK 29/10 Q1020 NOSIG
Pressure 30.12 in
Visibility -9999.0 miles
Clouds
Heat Index 83 °F
Dew Point 55 °F
Humidity 38%
Rainfall 0.00 in
Snow Depth Not available.
6:11 AM 7:57 PM
Waning Crescent, 24% visible
METAR LKPR 271500Z 11005KT 040V170 CAVOK 29/10 Q1020 NOSIG

10-Day Weather Forecast

×

Almanac

Astronomy

Aug. 27, 2016 Rise Set
Actual Time
Civil Twilight
Nautical Twilight
Astronomical Twilight
Moon
Length of Visible Light
Length of Day
Tomorrow will be .
, % of the Moon is Illuminated

Today's Extremes

Country Highs Country Lows

Community

WunderPhotos

Upload Photos

1,935,354 photos uploaded!

WunderBlog® & News

Nearby

Air Quality

  Air Quality AQ Index Pollutant
Not available.

Snow Depth

Station Depth Elevation

Earthquake Activity

City Distance Mag. Time & Date
Minimum magnitude displayed is 2.5.

Coastal Water Temperatures

Place Temperature

Stations

Nearby Weather Stations

Station Location Temp. Windchill Dew Point Humidity Wind Precip. Elev Updated Type